Largo — PFNC — position and weather

sailwx.info

Track history (hours):
 
Tides and Currents Weather Stations Pressure Air Temp Water Temp Dewpoint Dewpoint Depression Visibility Wind Speed Wind Dir Waves Ship Positions

Largo

Last reported at 2015-Jan-14 18:07 UTC. Time now 2015-Jan-26 18:34 UTC.
Position N 37°46' E 000°03'.
Warning: this ship's position is 12 days out of date.

Length 91 m; draft 6.4 m.

Type: Cargo ship. MMSI: 245645000.

Date/timePositionNaut miles runAvg speedWind from/ knotsBaromVisibWave heightAir tempDewpointWater temp
2015-Jan-14 18:07N 37°46' E 000°03'5 8.8
2015-Jan-14 17:32N 37°49' W 000°01'8 8.3
2015-Jan-14 16:34N 37°56' W 000°07'  
2015-Jan-11 09:27N 38°04' W 000°23'910.1
2015-Jan-11 08:33N 37°55' W 000°22'1010.0
2015-Jan-11 07:33N 37°45' W 000°22'9 9.3
2015-Jan-11 06:33N 37°36' W 000°22'8 8.4
2015-Jan-11 05:33N 37°28' W 000°22'9 9.0
2015-Jan-11 04:33N 37°19' W 000°21'11 8.2
2015-Jan-11 03:15N 37°08' W 000°21'6 8.3
2015-Jan-11 02:33N 37°02' W 000°20'11 8.5
2015-Jan-11 01:15N 36°51' W 000°20'6 8.4
2015-Jan-11 00:33N 36°45' W 000°20'9 8.6
2015-Jan-10 23:33N 36°37' W 000°18'9 9.4
2015-Jan-10 22:33N 36°27' W 000°16'10 9.4
2015-Jan-10 21:32N 36°18' W 000°15'9 8.9
2015-Jan-10 20:33N 36°09' W 000°16'11 8.9
2015-Jan-10 19:19N 35°58' W 000°15'7 8.8
2015-Jan-10 18:33N 35°52' W 000°16'  
Track history (hours):
 
Tides and Currents Weather Stations Pressure Air Temp Water Temp Dewpoint Dewpoint Depression Visibility Wind Speed Wind Dir Waves Ship Positions

Largo

Last reported at 2015-Jan-14 18:07 UTC. Time now 2015-Jan-26 18:34 UTC.
Position N 37°46' E 000°03'.
Warning: this ship's position is 12 days out of date.

Length 91 m; draft 6.4 m.

Type: Cargo ship. MMSI: 245645000.

Date/timePositionNaut miles runAvg speedWind from/ knotsBaromVisibWave heightAir tempDewpointWater temp
2015-Jan-14 18:07N 37°46' E 000°03'5 8.8
2015-Jan-14 17:32N 37°49' W 000°01'8 8.3
2015-Jan-14 16:34N 37°56' W 000°07'  
2015-Jan-11 09:27N 38°04' W 000°23'910.1
2015-Jan-11 08:33N 37°55' W 000°22'1010.0
2015-Jan-11 07:33N 37°45' W 000°22'9 9.3
2015-Jan-11 06:33N 37°36' W 000°22'8 8.4
2015-Jan-11 05:33N 37°28' W 000°22'9 9.0
2015-Jan-11 04:33N 37°19' W 000°21'11 8.2
2015-Jan-11 03:15N 37°08' W 000°21'6 8.3
2015-Jan-11 02:33N 37°02' W 000°20'11 8.5
2015-Jan-11 01:15N 36°51' W 000°20'6 8.4
2015-Jan-11 00:33N 36°45' W 000°20'9 8.6
2015-Jan-10 23:33N 36°37' W 000°18'9 9.4
2015-Jan-10 22:33N 36°27' W 000°16'10 9.4
2015-Jan-10 21:32N 36°18' W 000°15'9 8.9
2015-Jan-10 20:33N 36°09' W 000°16'11 8.9
2015-Jan-10 19:19N 35°58' W 000°15'7 8.8
2015-Jan-10 18:33N 35°52' W 000°16'  

Dump ship's entire track history